createdAt,value
2023-06-11T00:00:17.803Z,5.97
2023-06-11T00:03:08.104Z,5.88
2023-06-11T00:05:37.360Z,5.50
2023-06-11T00:08:07.029Z,5.88
2023-06-11T00:10:36.452Z,6.13
2023-06-11T00:13:05.457Z,5.68
2023-06-11T00:15:34.783Z,5.50
2023-06-11T00:18:03.617Z,5.43
2023-06-11T00:20:34.291Z,5.50
2023-06-11T00:23:03.232Z,5.07
2023-06-11T00:25:33.604Z,5.00
2023-06-11T00:28:02.566Z,4.88
2023-06-11T00:30:32.317Z,5.60
2023-06-11T00:33:01.526Z,4.93
2023-06-11T00:35:31.290Z,5.15
2023-06-11T00:38:01.746Z,4.20
2023-06-11T00:40:30.997Z,4.80
2023-06-11T00:42:59.958Z,4.35
2023-06-11T00:45:29.619Z,4.88
2023-06-11T00:47:58.751Z,4.32
2023-06-11T00:50:29.910Z,4.20
2023-06-11T00:53:00.380Z,4.57
2023-06-11T00:55:29.706Z,4.72
2023-06-11T00:57:58.620Z,4.80
2023-06-11T01:00:29.096Z,4.57
2023-06-11T01:03:09.039Z,4.45
2023-06-11T01:05:44.584Z,4.47
2023-06-11T01:08:18.154Z,4.20
2023-06-11T01:10:50.662Z,4.60
2023-06-11T01:13:20.403Z,4.47
2023-06-11T01:15:50.957Z,4.18
2023-06-11T01:18:25.111Z,4.28
2023-06-11T01:21:04.540Z,4.25
2023-06-11T01:23:44.906Z,4.05
2023-06-11T01:26:31.006Z,4.70
2023-06-11T01:29:05.377Z,4.20
2023-06-11T01:31:39.750Z,3.88
2023-06-11T01:34:10.053Z,4.15
2023-06-11T01:36:40.716Z,3.90
2023-06-11T01:39:10.549Z,3.55
2023-06-11T01:42:02.808Z,4.32
2023-06-11T01:44:34.376Z,4.15
2023-06-11T01:47:03.516Z,4.13
2023-06-11T01:49:32.805Z,3.25
2023-06-11T01:52:01.984Z,3.42
2023-06-11T01:54:31.091Z,3.40
2023-06-11T01:57:00.278Z,3.65
2023-06-11T01:59:29.237Z,3.47
2023-06-11T02:02:00.345Z,3.65
2023-06-11T02:04:29.547Z,3.70
2023-06-11T02:06:59.211Z,3.50
2023-06-11T02:09:28.132Z,3.45
2023-06-11T02:11:57.365Z,2.95
2023-06-11T02:14:26.568Z,3.30
2023-06-11T02:16:55.990Z,3.22
2023-06-11T02:19:26.346Z,2.92
2023-06-11T02:21:55.623Z,3.70
2023-06-11T02:24:24.758Z,3.17
2023-06-11T02:26:53.957Z,3.33
2023-06-11T02:29:23.066Z,3.90
2023-06-11T02:31:52.132Z,3.38
2023-06-11T02:34:20.962Z,3.40
2023-06-11T02:36:51.943Z,4.10
2023-06-11T02:39:21.008Z,3.03
2023-06-11T02:41:50.174Z,3.20
2023-06-11T02:44:19.063Z,3.67
2023-06-11T02:46:48.320Z,3.00
2023-06-11T02:49:17.305Z,3.25
2023-06-11T02:51:46.417Z,3.25
2023-06-11T02:54:16.649Z,2.80
2023-06-11T02:56:45.951Z,3.20
2023-06-11T02:59:15.168Z,3.10
2023-06-11T03:01:44.468Z,3.25
2023-06-11T03:04:13.709Z,3.03
2023-06-11T03:06:42.981Z,3.15
2023-06-11T03:09:11.930Z,3.35
2023-06-11T03:11:42.573Z,3.00
2023-06-11T03:14:11.363Z,2.90
2023-06-11T03:16:40.555Z,3.65
2023-06-11T03:19:09.756Z,3.55
2023-06-11T03:21:39.182Z,3.15
2023-06-11T03:24:09.334Z,3.40
2023-06-11T03:26:38.634Z,2.97
2023-06-11T03:29:09.143Z,3.25
2023-06-11T03:31:47.149Z,2.92
2023-06-11T03:34:16.538Z,2.92
2023-06-11T03:36:46.408Z,3.08
2023-06-11T03:39:18.980Z,3.35
2023-06-11T03:41:51.545Z,3.15
2023-06-11T03:44:23.788Z,3.17
2023-06-11T03:46:53.574Z,3.38
2023-06-11T03:49:22.563Z,3.40
2023-06-11T03:51:51.830Z,3.40
2023-06-11T03:54:20.875Z,3.40
2023-06-11T03:56:51.561Z,2.92
2023-06-11T03:59:20.718Z,3.53
2023-06-11T04:01:51.435Z,3.15
2023-06-11T04:04:20.462Z,3.38
2023-06-11T04:06:50.420Z,2.90
2023-06-11T04:09:19.959Z,3.33
2023-06-11T04:11:49.190Z,3.20
2023-06-11T04:14:18.324Z,3.03
2023-06-11T04:16:47.634Z,3.17
2023-06-11T04:19:19.524Z,3.28
2023-06-11T04:21:49.896Z,2.90
2023-06-11T04:24:18.953Z,3.08
2023-06-11T04:26:49.339Z,2.97
2023-06-11T04:29:19.788Z,2.70
2023-06-11T04:31:52.328Z,3.25
2023-06-11T04:34:30.352Z,2.92
2023-06-11T04:37:02.249Z,3.17
2023-06-11T04:39:32.715Z,3.13
2023-06-11T04:42:04.349Z,2.90
2023-06-11T04:44:33.309Z,2.97
2023-06-11T04:47:05.787Z,3.03
2023-06-11T04:49:38.914Z,3.05
2023-06-11T04:52:09.704Z,3.05
2023-06-11T04:54:42.714Z,3.45
2023-06-11T04:57:12.151Z,2.70
2023-06-11T04:59:41.057Z,2.83
2023-06-11T05:02:10.745Z,2.80
2023-06-11T05:04:41.302Z,3.00
2023-06-11T05:07:12.024Z,2.90
2023-06-11T05:09:44.460Z,3.10
2023-06-11T05:12:15.793Z,2.50
2023-06-11T05:14:46.484Z,2.85
2023-06-11T05:17:17.083Z,2.90
2023-06-11T05:19:49.916Z,2.47
2023-06-11T05:22:19.603Z,2.60
2023-06-11T05:24:48.997Z,2.75
2023-06-11T05:27:18.559Z,2.65
2023-06-11T05:29:47.963Z,3.15
2023-06-11T05:32:19.202Z,2.90
2023-06-11T05:34:51.223Z,2.92
2023-06-11T05:37:23.132Z,2.75
2023-06-11T05:39:52.072Z,2.80
2023-06-11T05:42:22.314Z,2.67
2023-06-11T05:44:51.471Z,2.90
2023-06-11T05:47:20.920Z,2.63
2023-06-11T05:49:53.399Z,2.88
2023-06-11T05:52:22.643Z,2.75
2023-06-11T05:54:51.626Z,2.65
2023-06-11T05:57:23.185Z,2.60
2023-06-11T05:59:54.234Z,2.85
2023-06-11T06:02:24.697Z,2.58
2023-06-11T06:04:56.529Z,2.80
2023-06-11T06:07:25.956Z,2.60
2023-06-11T06:09:56.620Z,2.28
2023-06-11T06:12:25.815Z,2.70
2023-06-11T06:14:54.718Z,2.63
2023-06-11T06:17:24.020Z,2.72
2023-06-11T06:19:53.259Z,2.67
2023-06-11T06:22:23.876Z,2.90
2023-06-11T06:24:52.846Z,2.83
2023-06-11T06:27:22.444Z,2.67
2023-06-11T06:29:52.095Z,2.72
2023-06-11T06:32:21.453Z,2.47
2023-06-11T06:34:50.891Z,2.40
2023-06-11T06:37:20.180Z,3.03
2023-06-11T06:39:52.349Z,2.90
2023-06-11T06:42:21.735Z,2.58
2023-06-11T06:44:55.442Z,2.38
2023-06-11T06:47:24.914Z,2.90
2023-06-11T06:49:54.058Z,2.55
2023-06-11T06:52:23.108Z,2.60
2023-06-11T06:54:53.439Z,2.40
2023-06-11T06:57:22.633Z,2.33
2023-06-11T06:59:51.539Z,2.58
2023-06-11T07:02:21.499Z,2.35
2023-06-11T07:04:52.672Z,2.63
2023-06-11T07:07:21.994Z,2.35
2023-06-11T07:09:52.762Z,2.50
2023-06-11T07:12:22.588Z,2.00
2023-06-11T07:14:52.389Z,2.55
2023-06-11T07:17:23.036Z,2.10
2023-06-11T07:19:52.499Z,2.42
2023-06-11T07:22:22.008Z,2.28
2023-06-11T07:24:53.430Z,1.90
2023-06-11T07:27:22.583Z,2.35
2023-06-11T07:29:53.439Z,2.10
2023-06-11T07:32:22.857Z,2.70
2023-06-11T07:34:51.902Z,1.90
2023-06-11T07:37:20.994Z,2.25
2023-06-11T07:39:50.022Z,2.30
2023-06-11T07:42:20.870Z,2.20
2023-06-11T07:44:49.831Z,2.00
2023-06-11T07:47:19.053Z,1.95
2023-06-11T07:49:47.984Z,1.92
2023-06-11T07:52:17.597Z,1.90
2023-06-11T07:54:47.172Z,2.03
2023-06-11T07:57:17.030Z,1.90
2023-06-11T07:59:47.378Z,1.77
2023-06-11T08:02:16.837Z,1.90
2023-06-11T08:04:46.190Z,2.22
2023-06-11T08:07:15.364Z,2.28
2023-06-11T08:09:44.556Z,2.10
2023-06-11T08:12:14.621Z,2.83
2023-06-11T08:14:43.538Z,2.20
2023-06-11T08:17:14.392Z,1.90
2023-06-11T08:19:43.222Z,1.75
2023-06-11T08:22:12.409Z,2.25
2023-06-11T08:24:41.847Z,2.28
2023-06-11T08:27:11.124Z,2.20
2023-06-11T08:29:40.230Z,2.05
2023-06-11T08:32:10.056Z,2.20
2023-06-11T08:34:40.364Z,2.35
2023-06-11T08:37:09.566Z,2.40
2023-06-11T08:39:38.544Z,2.70
2023-06-11T08:42:09.039Z,2.60
2023-06-11T08:44:38.257Z,2.40
2023-06-11T08:47:11.234Z,2.50
2023-06-11T08:49:43.946Z,2.40
2023-06-11T08:52:15.845Z,2.30
2023-06-11T08:54:45.035Z,2.38
2023-06-11T08:57:14.374Z,2.03
2023-06-11T08:59:43.300Z,2.30
2023-06-11T09:02:12.618Z,1.92
2023-06-11T09:04:45.063Z,2.40
2023-06-11T09:07:25.759Z,2.10
2023-06-11T09:10:05.842Z,1.90
2023-06-11T09:12:35.625Z,2.63
2023-06-11T09:15:08.258Z,2.40
2023-06-11T09:17:38.565Z,2.30
2023-06-11T09:20:12.838Z,2.40
2023-06-11T09:22:45.207Z,2.40
2023-06-11T09:25:18.272Z,2.00
2023-06-11T09:27:49.859Z,2.30
2023-06-11T09:30:21.233Z,2.45
2023-06-11T09:32:51.560Z,2.28
2023-06-11T09:35:23.282Z,2.40
2023-06-11T09:37:54.549Z,2.28
2023-06-11T09:40:25.366Z,1.98
2023-06-11T09:42:54.623Z,2.22
2023-06-11T09:45:24.897Z,2.30
2023-06-11T09:47:55.390Z,2.60
2023-06-11T09:50:26.943Z,2.30
2023-06-11T09:52:59.071Z,2.20
2023-06-11T09:55:29.176Z,2.40
2023-06-11T09:57:59.087Z,2.17
2023-06-11T10:00:27.997Z,2.70
2023-06-11T10:02:57.578Z,2.30
2023-06-11T10:05:29.638Z,2.10
2023-06-11T10:08:07.062Z,2.40
2023-06-11T10:10:41.537Z,1.85
2023-06-11T10:13:10.886Z,2.17
2023-06-11T10:15:40.615Z,3.03
2023-06-11T10:18:16.372Z,2.30
2023-06-11T10:21:01.180Z,2.22
2023-06-11T10:23:38.758Z,2.30
2023-06-11T10:26:09.253Z,2.30
2023-06-11T10:28:42.998Z,2.47
2023-06-11T10:31:12.001Z,2.53
2023-06-11T10:33:48.178Z,2.33
2023-06-11T10:36:29.163Z,2.40
2023-06-11T10:39:07.481Z,2.50
2023-06-11T10:41:40.444Z,2.85
2023-06-11T10:44:11.905Z,2.40
2023-06-11T10:46:50.305Z,2.70
2023-06-11T10:49:21.409Z,2.50
2023-06-11T10:51:53.801Z,2.50
2023-06-11T10:54:27.280Z,2.38
2023-06-11T10:56:57.100Z,2.67
2023-06-11T10:59:26.291Z,2.40
2023-06-11T11:01:56.089Z,2.47
2023-06-11T11:04:26.205Z,2.55
2023-06-11T11:07:09.648Z,2.42
2023-06-11T11:09:39.383Z,2.60
2023-06-11T11:12:09.616Z,2.60
2023-06-11T11:14:38.907Z,2.42
2023-06-11T11:17:08.498Z,2.88
2023-06-11T11:19:38.085Z,2.50
2023-06-11T11:22:08.578Z,2.85
2023-06-11T11:24:40.796Z,3.03
2023-06-11T11:27:10.410Z,2.85
2023-06-11T11:29:39.702Z,2.75
2023-06-11T11:32:09.788Z,2.88
2023-06-11T11:34:41.504Z,2.17
2023-06-11T11:37:12.358Z,2.88
2023-06-11T11:39:41.627Z,2.58
2023-06-11T11:42:11.778Z,2.55
2023-06-11T11:44:42.571Z,2.47
2023-06-11T11:47:11.823Z,2.45
2023-06-11T11:49:41.289Z,2.58
2023-06-11T11:52:14.042Z,2.60
2023-06-11T11:54:45.558Z,2.95
2023-06-11T11:57:14.755Z,2.90
2023-06-11T11:59:44.364Z,3.22
2023-06-11T12:02:13.211Z,2.78
2023-06-11T12:04:51.033Z,3.30
2023-06-11T12:07:22.956Z,3.15
2023-06-11T12:09:52.131Z,3.72
2023-06-11T12:12:21.051Z,3.25
2023-06-11T12:14:50.206Z,3.70
2023-06-11T12:17:19.339Z,2.83
2023-06-11T12:19:48.637Z,3.33
2023-06-11T12:22:17.632Z,3.42
2023-06-11T12:24:47.925Z,3.38
2023-06-11T12:27:17.168Z,3.17
2023-06-11T12:29:46.994Z,3.00
2023-06-11T12:32:16.466Z,2.90
2023-06-11T12:34:45.535Z,2.80
2023-06-11T12:37:15.228Z,2.83
2023-06-11T12:39:45.264Z,3.00
2023-06-11T12:42:16.256Z,2.78
2023-06-11T12:44:46.769Z,3.10
2023-06-11T12:47:16.793Z,3.17
2023-06-11T12:49:46.777Z,2.60
2023-06-11T12:52:16.911Z,2.78
2023-06-11T12:54:46.068Z,2.80
2023-06-11T12:57:17.357Z,3.00
2023-06-11T12:59:46.673Z,2.80
2023-06-11T13:02:19.399Z,3.28
2023-06-11T13:04:48.898Z,2.80
2023-06-11T13:07:18.455Z,2.78
2023-06-11T13:09:48.051Z,3.00
2023-06-11T13:12:19.296Z,3.00
2023-06-11T13:14:48.725Z,3.00
2023-06-11T13:17:17.820Z,3.20
2023-06-11T13:19:46.862Z,2.72
2023-06-11T13:22:17.469Z,2.55
2023-06-11T13:24:46.718Z,2.78
2023-06-11T13:27:16.028Z,3.20
2023-06-11T13:29:46.678Z,2.83
2023-06-11T13:32:17.042Z,3.08
2023-06-11T13:34:46.159Z,2.90
2023-06-11T13:37:15.759Z,2.85
2023-06-11T13:39:44.816Z,2.88
2023-06-11T13:42:14.278Z,2.75
2023-06-11T13:44:43.277Z,2.63
2023-06-11T13:47:14.279Z,2.60
2023-06-11T13:49:43.315Z,3.03
2023-06-11T13:52:12.515Z,2.53
2023-06-11T13:54:43.781Z,2.75
2023-06-11T13:57:12.920Z,3.42
2023-06-11T13:59:41.976Z,2.97
2023-06-11T14:02:11.295Z,3.10
2023-06-11T14:04:41.607Z,3.05
2023-06-11T14:07:11.162Z,2.90
2023-06-11T14:09:40.841Z,2.75
2023-06-11T14:12:10.848Z,2.67
2023-06-11T14:14:39.692Z,2.90
2023-06-11T14:17:09.200Z,2.90
2023-06-11T14:19:38.110Z,3.08
2023-06-11T14:22:08.985Z,2.78
2023-06-11T14:24:37.946Z,2.90
2023-06-11T14:27:08.849Z,2.80
2023-06-11T14:29:37.620Z,2.90
2023-06-11T14:32:08.446Z,3.17
2023-06-11T14:34:37.511Z,2.80
2023-06-11T14:37:08.716Z,2.88
2023-06-11T14:39:37.688Z,3.35
2023-06-11T14:42:08.303Z,2.60
2023-06-11T14:44:37.322Z,3.22
2023-06-11T14:47:07.473Z,3.33
2023-06-11T14:49:36.748Z,3.65
2023-06-11T14:52:10.636Z,3.00
2023-06-11T14:54:40.737Z,3.03
2023-06-11T14:57:14.366Z,2.95
2023-06-11T14:59:45.013Z,3.17
2023-06-11T15:02:16.414Z,3.00
2023-06-11T15:04:46.537Z,2.83
2023-06-11T15:07:33.193Z,3.13
2023-06-11T15:10:06.236Z,2.50
2023-06-11T15:12:35.724Z,2.78
2023-06-11T15:15:04.863Z,3.03
2023-06-11T15:17:37.448Z,3.00
2023-06-11T15:20:08.244Z,2.53
2023-06-11T15:22:40.654Z,2.97
2023-06-11T15:25:11.362Z,2.75
2023-06-11T15:27:41.121Z,2.83
2023-06-11T15:30:11.453Z,2.80
2023-06-11T15:32:41.085Z,3.05
2023-06-11T15:35:12.194Z,2.88
2023-06-11T15:37:42.820Z,2.53
2023-06-11T15:40:13.379Z,3.10
2023-06-11T15:42:43.527Z,2.90
2023-06-11T15:45:14.198Z,2.78
2023-06-11T15:47:44.593Z,2.65
2023-06-11T15:50:14.310Z,3.00
2023-06-11T15:52:45.594Z,2.92
2023-06-11T15:55:14.906Z,2.67
2023-06-11T15:57:45.255Z,3.15
2023-06-11T16:00:16.039Z,2.55
2023-06-11T16:02:45.511Z,2.80
2023-06-11T16:05:14.876Z,3.38
2023-06-11T16:07:45.649Z,2.95
2023-06-11T16:10:15.053Z,2.80
2023-06-11T16:12:45.963Z,2.92
2023-06-11T16:15:15.259Z,2.90
2023-06-11T16:17:46.288Z,2.75
2023-06-11T16:20:18.038Z,2.60
2023-06-11T16:22:48.923Z,2.88
2023-06-11T16:25:20.650Z,2.83
2023-06-11T16:27:50.548Z,2.88
2023-06-11T16:30:19.386Z,2.83
2023-06-11T16:32:48.692Z,3.08
2023-06-11T16:35:18.596Z,3.00
2023-06-11T16:37:49.542Z,2.60
2023-06-11T16:40:18.482Z,2.95
2023-06-11T16:42:47.696Z,2.78
2023-06-11T16:45:17.060Z,2.83
2023-06-11T16:47:46.295Z,3.08
2023-06-11T16:50:15.704Z,2.90
2023-06-11T16:52:45.043Z,2.97
2023-06-11T16:55:15.352Z,2.35
2023-06-11T16:57:44.551Z,2.80
2023-06-11T17:00:15.994Z,2.58
2023-06-11T17:02:45.931Z,2.90
2023-06-11T17:05:15.321Z,2.97
2023-06-11T17:07:45.515Z,2.80
2023-06-11T17:10:15.927Z,2.70
2023-06-11T17:12:47.265Z,2.38
2023-06-11T17:15:17.532Z,2.58
2023-06-11T17:17:47.416Z,2.50
2023-06-11T17:20:18.113Z,2.58
2023-06-11T17:22:51.728Z,2.50
2023-06-11T17:25:24.632Z,2.55
2023-06-11T17:27:54.095Z,2.53
2023-06-11T17:30:23.497Z,2.47
2023-06-11T17:32:52.757Z,2.67
2023-06-11T17:35:21.981Z,2.78
2023-06-11T17:37:51.138Z,2.85
2023-06-11T17:40:21.716Z,3.10
2023-06-11T17:42:52.133Z,2.60
2023-06-11T17:45:21.060Z,2.65
2023-06-11T17:47:50.446Z,2.70
2023-06-11T17:50:19.295Z,2.80
2023-06-11T17:52:48.665Z,3.30
2023-06-11T17:55:17.769Z,2.80
2023-06-11T17:57:49.274Z,2.63
2023-06-11T18:00:19.415Z,2.67
2023-06-11T18:02:48.680Z,2.38
2023-06-11T18:05:17.916Z,2.58
2023-06-11T18:07:47.668Z,3.15
2023-06-11T18:10:17.287Z,2.58
2023-06-11T18:12:47.903Z,3.22
2023-06-11T18:17:49.045Z,2.92
2023-06-11T18:20:18.131Z,3.35
2023-06-11T18:22:47.467Z,2.90
2023-06-11T18:25:16.569Z,2.60
2023-06-11T18:27:47.345Z,3.33
2023-06-11T18:30:19.624Z,2.78
2023-06-11T18:32:49.355Z,2.83
2023-06-11T18:35:19.347Z,3.00
2023-06-11T18:37:48.840Z,3.08
2023-06-11T18:40:17.753Z,3.20
2023-06-11T18:42:48.685Z,2.80
2023-06-11T18:45:17.768Z,2.70
2023-06-11T18:47:47.022Z,3.17
2023-06-11T18:50:16.476Z,3.28
2023-06-11T18:52:45.758Z,3.03
2023-06-11T18:55:14.740Z,2.70
2023-06-11T18:57:43.839Z,3.13
2023-06-11T19:00:16.165Z,3.35
2023-06-11T19:02:45.597Z,3.58
2023-06-11T19:05:14.789Z,2.65
2023-06-11T19:07:44.054Z,3.00
2023-06-11T19:10:13.370Z,3.25
2023-06-11T19:12:43.821Z,3.15
2023-06-11T19:15:14.346Z,3.22
2023-06-11T19:17:43.771Z,3.55
2023-06-11T19:20:13.897Z,3.42
2023-06-11T19:22:43.271Z,2.95
2023-06-11T19:25:12.272Z,2.92
2023-06-11T19:27:41.716Z,3.00
2023-06-11T19:30:11.803Z,3.15
2023-06-11T19:32:42.657Z,3.15
2023-06-11T19:35:12.094Z,3.40
2023-06-11T19:37:41.444Z,3.20
2023-06-11T19:40:12.472Z,3.03
2023-06-11T19:42:42.364Z,3.30
2023-06-11T19:45:11.735Z,3.17
2023-06-11T19:47:42.451Z,3.30
2023-06-11T19:50:12.564Z,3.55
2023-06-11T19:52:42.372Z,2.92
2023-06-11T19:55:12.042Z,3.60
2023-06-11T19:57:41.447Z,3.65
2023-06-11T20:00:12.668Z,3.53
2023-06-11T20:02:43.634Z,3.33
2023-06-11T20:05:12.679Z,3.80
2023-06-11T20:07:41.895Z,3.50
2023-06-11T20:10:11.861Z,3.65
2023-06-11T20:12:41.277Z,3.38
2023-06-11T20:15:11.472Z,4.15
2023-06-11T20:17:41.976Z,3.50
2023-06-11T20:20:11.971Z,3.45
2023-06-11T20:22:41.660Z,4.03
2023-06-11T20:25:10.822Z,3.90
2023-06-11T20:27:40.103Z,3.95
2023-06-11T20:30:10.618Z,3.92
2023-06-11T20:32:40.672Z,3.47
2023-06-11T20:35:11.517Z,3.97
2023-06-11T20:37:41.139Z,3.92
2023-06-11T20:40:12.045Z,3.55
2023-06-11T20:42:41.866Z,4.15
2023-06-11T20:45:12.111Z,4.43
2023-06-11T20:47:41.512Z,4.43
2023-06-11T20:50:12.404Z,4.10
2023-06-11T20:52:41.960Z,4.07
2023-06-11T20:55:11.585Z,4.00
2023-06-11T20:57:59.323Z,4.05
2023-06-11T21:00:28.245Z,3.85
2023-06-11T21:03:00.027Z,4.15
2023-06-11T21:05:30.848Z,4.13
2023-06-11T21:08:00.285Z,4.50
2023-06-11T21:10:29.204Z,4.35
2023-06-11T21:12:58.391Z,4.03
2023-06-11T21:15:27.311Z,3.92
2023-06-11T21:17:57.639Z,4.45
2023-06-11T21:20:27.220Z,5.13
2023-06-11T21:22:57.802Z,5.40
2023-06-11T21:25:26.746Z,5.25
2023-06-11T21:27:55.936Z,6.00
2023-06-11T21:30:24.978Z,4.80
2023-06-11T21:32:54.236Z,4.45
2023-06-11T21:35:23.256Z,4.43
2023-06-11T21:37:52.429Z,3.80
2023-06-11T21:40:22.833Z,4.55
2023-06-11T21:42:52.000Z,4.75
2023-06-11T21:45:21.008Z,4.20
2023-06-11T21:47:50.409Z,4.35
2023-06-11T21:50:19.764Z,4.13
2023-06-11T21:52:48.929Z,4.70
2023-06-11T21:55:18.176Z,4.28
2023-06-11T21:57:48.900Z,4.57
2023-06-11T22:00:20.840Z,4.88
2023-06-11T22:02:50.027Z,4.57
2023-06-11T22:05:21.842Z,4.22
2023-06-11T22:07:52.520Z,4.57
2023-06-11T22:10:21.706Z,4.25
2023-06-11T22:12:52.354Z,4.80
2023-06-11T22:15:21.733Z,4.50
2023-06-11T22:17:53.912Z,4.97
2023-06-11T22:20:26.581Z,4.45
2023-06-11T22:22:56.268Z,4.10
2023-06-11T22:25:27.319Z,4.47
2023-06-11T22:27:58.120Z,4.45
2023-06-11T22:30:26.898Z,4.28
2023-06-11T22:32:56.131Z,4.38
2023-06-11T22:35:25.056Z,4.80
2023-06-11T22:37:54.253Z,4.40
2023-06-11T22:40:23.713Z,4.70
2023-06-11T22:42:52.815Z,4.45
2023-06-11T22:45:23.080Z,4.47
2023-06-11T22:47:54.426Z,4.60
2023-06-11T22:50:23.565Z,3.67
2023-06-11T22:52:54.737Z,3.97
2023-06-11T22:55:23.633Z,4.00
2023-06-11T22:57:52.907Z,4.00
2023-06-11T23:00:23.555Z,4.13
2023-06-11T23:02:52.804Z,4.55
2023-06-11T23:05:21.830Z,4.05
2023-06-11T23:07:51.443Z,4.40
2023-06-11T23:10:20.438Z,4.45
2023-06-11T23:12:50.323Z,4.18
2023-06-11T23:15:19.506Z,4.15
2023-06-11T23:17:54.885Z,4.30
2023-06-11T23:20:28.563Z,4.53
2023-06-11T23:22:58.457Z,4.43
2023-06-11T23:25:28.190Z,4.30
2023-06-11T23:27:57.408Z,4.20
2023-06-11T23:30:26.777Z,4.35
2023-06-11T23:33:01.121Z,4.32
2023-06-11T23:35:30.174Z,4.00
2023-06-11T23:37:59.289Z,4.63
2023-06-11T23:40:28.098Z,3.95
2023-06-11T23:42:57.314Z,4.07
2023-06-11T23:45:26.206Z,4.15
2023-06-11T23:47:56.793Z,4.40
2023-06-11T23:50:25.974Z,4.47
2023-06-11T23:52:55.064Z,4.50
2023-06-11T23:55:24.500Z,4.55
2023-06-11T23:58:20.733Z,4.30
